Station Historical Data
Daily Summary for December 4, 2017 Units:  Metric    English   Both
Next Day »
Daily Weekly Monthly Yearly Custom
  High: Low: Average:
Temperature: 9.3 °C 1.3 °C 4.8 °C
Dew Point: -1.5 °C -8.3 °C -5.6 °C
Humidity: 67% 31% 48%
Wind Speed: 41.8km/h 0km/h 5.5km/h
Wind Gust: 57.9km/h - -
Wind- - East
Pressure: 1027.3 hPa 1021.9 hPa -
Precipitation: 0 mm    
Historical Graphs
 
 
Tabular Data for December 4, 2017
Time Temperature Dew Point Pressure Wind Wind Speed Wind Gust Humidity Rainfall Rate (Hourly) solar Conditions
00:03 1.7 °C -4.6 °C 1024.3 hPa NE 8 km/h 14.5 km/h 63% 0 mm 0.00 W/m2
00:08 1.8 °C -4.9 °C 1024.3 hPa Calm   11.3 km/h 61% 0 mm 0.00 W/m2
00:13 1.9 °C -5 °C 1024.3 hPa NE 4.8 km/h 8 km/h 60% 0 mm 0.00 W/m2
00:18 2 °C -4.9 °C 1024.3 hPa Calm   11.3 km/h 60% 0 mm 0.00 W/m2
00:23 2 °C -5.2 °C 1024.3 hPa Calm   12.9 km/h 59% 0 mm 0.00 W/m2
00:28 2 °C -5.4 °C 1024.3 hPa Calm   11.3 km/h 58% 0 mm 0.00 W/m2
00:33 2.1 °C -4.4 °C 1024.3 hPa NNE 11.3 km/h 14.5 km/h 62% 0 mm 0.00 W/m2
00:38 2 °C -4.7 °C 1024.3 hPa Calm   12.9 km/h 61% 0 mm 0.00 W/m2
00:43 2.1 °C -4.2 °C 1023.9 hPa NNE 6.4 km/h 14.5 km/h 63% 0 mm 0.00 W/m2
00:48 1.9 °C -4.6 °C 1023.6 hPa Calm   11.3 km/h 62% 0 mm 0.00 W/m2
00:53 1.8 °C -4.1 °C 1023.6 hPa Calm   11.3 km/h 65% 0 mm 0.00 W/m2
00:58 1.6 °C -3.8 °C 1023.6 hPa Calm   4.8 km/h 67% 0 mm 0.00 W/m2
01:03 1.4 °C -4 °C 1023.6 hPa Calm   4.8 km/h 67% 0 mm 0.00 W/m2
01:08 1.4 °C -4.7 °C 1023.9 hPa Calm     64% 0 mm 0.00 W/m2
01:13 1.4 °C -4.4 °C 1023.6 hPa Calm     65% 0 mm 0.00 W/m2
01:18 1.4 °C -4.8 °C 1023.6 hPa ENE 3.2 km/h 12.9 km/h 63% 0 mm 0.00 W/m2
01:24 1.4 °C -4.4 °C 1023.6 hPa NE 1.6 km/h 11.3 km/h 65% 0 mm 0.00 W/m2
01:28 1.4 °C -4.6 °C 1023.6 hPa Calm   11.3 km/h 64% 0 mm 0.00 W/m2
01:34 1.5 °C -4.6 °C 1023.6 hPa East 16.1 km/h 16.1 km/h 64% 0 mm 0.00 W/m2
01:39 1.5 °C -4.4 °C 1023.6 hPa Calm   19.3 km/h 65% 0 mm 0.00 W/m2
01:44 1.6 °C -4.4 °C 1023.6 hPa Calm   16.1 km/h 64% 0 mm 0.00 W/m2
01:49 1.7 °C -4.8 °C 1023.6 hPa East 3.2 km/h 16.1 km/h 62% 0 mm 0.00 W/m2
01:54 1.8 °C -4.7 °C 1023.2 hPa East 30.6 km/h 33.8 km/h 62% 0 mm 0.00 W/m2
01:59 2.1 °C -5.5 °C 1023.2 hPa East 24.1 km/h 40.2 km/h 57% 0 mm 0.00 W/m2
02:04 2.5 °C -4.7 °C 1023.6 hPa Calm   40.2 km/h 59% 0 mm 0.00 W/m2
02:09 2.8 °C -4.7 °C 1023.6 hPa East 17.7 km/h 33.8 km/h 58% 0 mm 0.00 W/m2
02:14 2.9 °C -5.2 °C 1023.6 hPa East 19.3 km/h 30.6 km/h 55% 0 mm 0.00 W/m2
02:19 3.1 °C -4.3 °C 1023.6 hPa Calm   27.4 km/h 58% 0 mm 0.00 W/m2
02:24 3.2 °C -4.8 °C 1023.6 hPa ENE 11.3 km/h 40.2 km/h 56% 0 mm 0.00 W/m2
02:29 3.2 °C -4.3 °C 1023.6 hPa East 16.1 km/h 38.6 km/h 58% 0 mm 0.00 W/m2
02:39 3.2 °C -4.8 °C 1023.6 hPa ENE 12.9 km/h 35.4 km/h 56% 0 mm 0.00 W/m2
02:44 3.3 °C -5.4 °C 1023.6 hPa NE 4.8 km/h 29 km/h 53% 0 mm 0.00 W/m2
02:49 3.4 °C -5 °C 1023.6 hPa East 6.4 km/h 27.4 km/h 54% 0 mm 0.00 W/m2
02:54 3.3 °C -4.6 °C 1023.6 hPa East 12.9 km/h 25.7 km/h 56% 0 mm 0.00 W/m2
02:59 3.2 °C -4.7 °C 1023.6 hPa ENE 12.9 km/h 29 km/h 56% 0 mm 0.00 W/m2
03:04 3.3 °C -5.4 °C 1023.6 hPa ENE 17.7 km/h 30.6 km/h 53% 0 mm 0.00 W/m2
03:09 3.3 °C -5.1 °C 1023.6 hPa East 22.5 km/h 27.4 km/h 54% 0 mm 0.00 W/m2
03:14 3.3 °C -4.7 °C 1023.6 hPa ENE 8 km/h 32.2 km/h 56% 0 mm 0.00 W/m2
03:19 3.2 °C -5 °C 1023.2 hPa East 14.5 km/h 22.5 km/h 55% 0 mm 0.00 W/m2
03:24 3.1 °C -4.3 °C 1023.2 hPa ENE 4.8 km/h 32.2 km/h 58% 0 mm 0.00 W/m2
03:29 3 °C -4.7 °C 1023.2 hPa ENE 20.9 km/h 29 km/h 57% 0 mm 0.00 W/m2
03:34 3 °C -4.9 °C 1023.2 hPa East 24.1 km/h 32.2 km/h 56% 0 mm 0.00 W/m2
03:39 3.2 °C -6.4 °C 1023.2 hPa ENE 6.4 km/h 30.6 km/h 49% 0 mm 0.00 W/m2
03:44 3.7 °C -5.6 °C 1023.2 hPa Calm   41.8 km/h 51% 0 mm 0.00 W/m2
03:49 3.7 °C -5.3 °C 1022.9 hPa East 24.1 km/h 35.4 km/h 52% 0 mm 0.00 W/m2
03:54 3.5 °C -4.2 °C 1022.9 hPa ESE 11.3 km/h 33.8 km/h 57% 0 mm 0.00 W/m2
03:59 3.2 °C -4.4 °C 1022.9 hPa ESE 11.3 km/h 29 km/h 57% 0 mm 0.00 W/m2
04:04 3.1 °C -4.4 °C 1022.6 hPa SE 20.9 km/h 37 km/h 58% 0 mm 0.00 W/m2
04:09 2.9 °C -5.2 °C 1022.9 hPa ENE 9.7 km/h 40.2 km/h 55% 0 mm 0.00 W/m2
04:14 2.9 °C -3.7 °C 1022.9 hPa Calm   20.9 km/h 62% 0 mm 0.00 W/m2
04:19 2.7 °C -3.8 °C 1022.9 hPa East 9.7 km/h 27.4 km/h 62% 0 mm 0.00 W/m2
04:24 2.6 °C -4.6 °C 1022.6 hPa East 9.7 km/h 22.5 km/h 59% 0 mm 0.00 W/m2
04:29 2.6 °C -4.6 °C 1022.6 hPa East 11.3 km/h 17.7 km/h 59% 0 mm 0.00 W/m2
04:34 2.7 °C -5.4 °C 1022.6 hPa East 8 km/h 37 km/h 55% 0 mm 0.00 W/m2
04:39 2.8 °C -4.2 °C 1022.2 hPa East 4.8 km/h 24.1 km/h 60% 0 mm 0.00 W/m2
04:44 2.8 °C -4.9 °C 1022.2 hPa ESE 22.5 km/h 35.4 km/h 57% 0 mm 0.00 W/m2
04:49 2.8 °C -5.6 °C 1022.2 hPa ESE 24.1 km/h 38.6 km/h 54% 0 mm 0.00 W/m2
04:54 3 °C -5.2 °C 1021.9 hPa Calm   35.4 km/h 55% 0 mm 0.00 W/m2
05:00 3.1 °C -4.3 °C 1021.9 hPa East 22.5 km/h 37 km/h 58% 0 mm 0.00 W/m2
05:05 3.2 °C -5.9 °C 1021.9 hPa East 33.8 km/h 48.3 km/h 51% 0 mm 0.00 W/m2
05:10 3.3 °C -5.3 °C 1021.9 hPa Calm   38.6 km/h 53% 0 mm 0.00 W/m2
05:15 3.3 °C -2.8 °C 1022.2 hPa East 3.2 km/h 30.6 km/h 64% 0 mm 0.00 W/m2
05:20 2.9 °C -3.7 °C 1022.2 hPa NE 1.6 km/h 22.5 km/h 62% 0 mm 0.00 W/m2
05:25 2.7 °C -3.7 °C 1022.6 hPa Calm     63% 0 mm 0.00 W/m2
05:30 2.5 °C -4.7 °C 1022.9 hPa Calm     59% 0 mm 0.00 W/m2
05:35 2.5 °C -6.9 °C 1022.9 hPa Calm     50% 0 mm 0.00 W/m2
05:40 2.7 °C -6.2 °C 1022.9 hPa Calm   1.6 km/h 52% 0 mm 0.00 W/m2
05:42 2.7 °C -5.7 °C 1022.6 hPa Calm     54% 0 mm 0.00 W/m2
05:47 2.7 °C -5.4 °C 1022.9 hPa Calm     55% 0 mm 0.00 W/m2
05:52 2.7 °C -5.2 °C 1022.9 hPa Calm     56% 0 mm 0.00 W/m2
05:57 2.7 °C -5.4 °C 1023.2 hPa Calm     55% 0 mm 0.00 W/m2
06:02 2.6 °C -4.4 °C 1023.2 hPa Calm     60% 0 mm 0.00 W/m2
06:07 2.4 °C -6.9 °C 1023.2 hPa Calm     50% 0 mm 0.00 W/m2
06:12 2.3 °C -6.8 °C 1023.2 hPa Calm     51% 0 mm 0.00 W/m2
06:22 2.1 °C -6.7 °C 1023.2 hPa Calm     52% 0 mm 0.00 W/m2
06:27 2 °C -5.2 °C 1023.6 hPa Calm     59% 0 mm 0.00 W/m2
06:30 1.9 °C -5.4 °C 1023.6 hPa Calm     58% 0 mm 0.00 W/m2
06:35 1.8 °C -5.8 °C 1023.6 hPa Calm     57% 0 mm 0.00 W/m2
06:40 1.6 °C -6.3 °C 1023.6 hPa Calm     56% 0 mm 0.00 W/m2
06:45 1.4 °C -5.7 °C 1023.6 hPa Calm     59% 0 mm 0.00 W/m2
06:50 1.3 °C -6.2 °C 1023.6 hPa Calm     57% 0 mm 0.00 W/m2
06:55 1.3 °C -7.2 °C 1023.6 hPa Calm     53% 0 mm 0.00 W/m2
07:00 1.3 °C -6.8 °C 1023.6 hPa Calm     55% 0 mm 5.00 W/m2
07:05 1.3 °C -7.4 °C 1023.6 hPa Calm     52% 0 mm 5.00 W/m2
07:10 1.3 °C -6.9 °C 1023.9 hPa Calm     54% 0 mm 7.00 W/m2
07:15 1.4 °C -7.4 °C 1023.9 hPa Calm     52% 0 mm 11.00 W/m2
07:20 1.4 °C -7.8 °C 1023.9 hPa Calm     50% 0 mm 12.00 W/m2
07:25 1.5 °C -7.8 °C 1023.9 hPa Calm     50% 0 mm 14.00 W/m2
07:30 1.6 °C -7.7 °C 1023.9 hPa Calm     50% 0 mm 19.00 W/m2
07:35 1.7 °C -7.4 °C 1023.9 hPa Calm     51% 0 mm 30.00 W/m2
07:40 1.7 °C -7.6 °C 1023.9 hPa Calm     50% 0 mm 40.00 W/m2
07:45 1.8 °C -7.3 °C 1024.3 hPa Calm     51% 0 mm 51.00 W/m2
07:50 1.8 °C -6.6 °C 1024.3 hPa Calm     54% 0 mm 67.00 W/m2
07:55 1.9 °C -7.9 °C 1024.6 hPa Calm     48% 0 mm 83.00 W/m2
08:00 2.1 °C -8.1 °C 1024.6 hPa Calm   3.2 km/h 47% 0 mm 98.00 W/m2
08:05 2.2 °C -8.3 °C 1024.6 hPa Calm   1.6 km/h 46% 0 mm 114.00 W/m2
08:10 2.3 °C -7.6 °C 1024.6 hPa NNE 1.6 km/h 1.6 km/h 48% 0 mm 132.00 W/m2
08:15 2.4 °C -7.7 °C 1024.9 hPa Calm   1.6 km/h 47% 0 mm 148.00 W/m2
08:20 2.5 °C -6.3 °C 1024.9 hPa ENE 4.8 km/h 4.8 km/h 52% 0 mm 167.00 W/m2
08:25 2.6 °C -6.6 °C 1024.9 hPa Calm   4.8 km/h 51% 0 mm 183.00 W/m2
08:30 2.6 °C -6.1 °C 1024.9 hPa Calm   4.8 km/h 53% 0 mm 197.00 W/m2
08:35 2.6 °C -7 °C 1024.9 hPa Calm     49% 0 mm 216.00 W/m2
08:40 2.7 °C -5.4 °C 1024.9 hPa ENE 3.2 km/h 3.2 km/h 55% 0 mm 236.00 W/m2
08:45 2.8 °C -5.6 °C 1024.9 hPa Calm   1.6 km/h 54% 0 mm 250.00 W/m2
08:50 2.9 °C -5.4 °C 1024.9 hPa Calm     54% 0 mm 269.00 W/m2
08:55 3.2 °C -5.7 °C 1024.9 hPa East 1.6 km/h 3.2 km/h 52% 0 mm 285.00 W/m2
09:00 3.6 °C -5.4 °C 1024.9 hPa ENE 29 km/h 29 km/h 52% 0 mm 304.00 W/m2
09:05 4.1 °C -6.2 °C 1025.3 hPa ESE 24.1 km/h 24.1 km/h 47% 0 mm 323.00 W/m2
09:10 4.7 °C -5.9 °C 1025.3 hPa East 9.7 km/h 12.9 km/h 46% 0 mm 334.00 W/m2
09:15 5.1 °C -6.4 °C 1025.3 hPa East 20.9 km/h 22.5 km/h 43% 0 mm 343.00 W/m2
09:20 5.4 °C -5.3 °C 1025.3 hPa Calm     46% 0 mm 353.00 W/m2
09:25 5.6 °C -5.2 °C 1025.6 hPa NNE 25.7 km/h 25.7 km/h 46% 0 mm 366.00 W/m2
09:31 5.6 °C -4.9 °C 1025.6 hPa Calm     47% 0 mm 376.00 W/m2
09:36 5.6 °C -4.9 °C 1025.6 hPa East 14.5 km/h 14.5 km/h 47% 0 mm 387.00 W/m2
09:41 5.8 °C -5.8 °C 1025.6 hPa Calm   3.2 km/h 43% 0 mm 399.00 W/m2
09:46 5.9 °C -5.7 °C 1025.6 hPa East 3.2 km/h 3.2 km/h 43% 0 mm 406.00 W/m2
09:51 6.1 °C -6.2 °C 1025.6 hPa East 1.6 km/h 35.4 km/h 41% 0 mm 424.00 W/m2
09:56 6.3 °C -7.3 °C 1026 hPa ENE 1.6 km/h 6.4 km/h 37% 0 mm 432.00 W/m2
10:01 6.6 °C -6 °C 1026 hPa East 3.2 km/h 11.3 km/h 40% 0 mm 436.00 W/m2
10:06 6.8 °C -5.6 °C 1026 hPa ESE 38.6 km/h 38.6 km/h 41% 0 mm 443.00 W/m2
10:11 7 °C -6.3 °C 1026 hPa East 32.2 km/h 46.7 km/h 38% 0 mm 450.00 W/m2
10:12 7 °C -6.3 °C 1026 hPa East 38.6 km/h 46.7 km/h 38% 0 mm 455.00 W/m2
10:17 7.2 °C -6.9 °C 1026 hPa ENE 3.2 km/h 27.4 km/h 36% 0 mm 462.00 W/m2
10:22 7.4 °C -7.4 °C 1026 hPa Calm   35.4 km/h 34% 0 mm 459.00 W/m2
10:27 7.6 °C -6.2 °C 1026 hPa ENE 33.8 km/h 45.1 km/h 37% 0 mm 478.00 W/m2
10:32 7.7 °C -6.4 °C 1026 hPa Calm   49.9 km/h 36% 0 mm 482.00 W/m2
10:37 7.8 °C -7.1 °C 1026 hPa ESE 19.3 km/h 46.7 km/h 34% 0 mm 489.00 W/m2
10:42 7.9 °C -6.3 °C 1026 hPa East 19.3 km/h 43.5 km/h 36% 0 mm 490.00 W/m2
10:47 7.9 °C -6.2 °C 1026 hPa NE 16.1 km/h 30.6 km/h 36% 0 mm 499.00 W/m2
10:52 8.1 °C -5.8 °C 1025.6 hPa East 38.6 km/h 43.5 km/h 37% 0 mm 503.00 W/m2
10:57 8.1 °C -6.1 °C 1025.6 hPa Calm   33.8 km/h 36% 0 mm 510.00 W/m2
11:02 8.2 °C -6.4 °C 1025.6 hPa East 32.2 km/h 37 km/h 35% 0 mm 513.00 W/m2
11:07 8.2 °C -6.3 °C 1025.6 hPa East 33.8 km/h 46.7 km/h 35% 0 mm 510.00 W/m2
11:12 8.3 °C -7.1 °C 1025.3 hPa ENE 40.2 km/h 43.5 km/h 33% 0 mm 520.00 W/m2
11:14 8.3 °C -6.3 °C 1025.3 hPa ENE 17.7 km/h 43.5 km/h 35% 0 mm 522.00 W/m2
11:19 8.3 °C -7.1 °C 1025.3 hPa ENE 40.2 km/h 56.3 km/h 33% 0 mm 527.00 W/m2
11:24 8.3 °C -6.3 °C 1025.3 hPa East 29 km/h 43.5 km/h 35% 0 mm 508.00 W/m2
11:29 8.3 °C -5.8 °C 1025.3 hPa ENE 24.1 km/h 51.5 km/h 36% 0 mm 527.00 W/m2
11:34 8.4 °C -5.8 °C 1025.3 hPa ENE 9.7 km/h 38.6 km/h 36% 0 mm 524.00 W/m2
11:39 8.4 °C -6.5 °C 1024.9 hPa ENE 22.5 km/h 48.3 km/h 34% 0 mm 531.00 W/m2
11:44 8.4 °C -6.2 °C 1024.9 hPa East 19.3 km/h 53.1 km/h 35% 0 mm 545.00 W/m2
11:49 8.4 °C -7.7 °C 1024.9 hPa ENE 33.8 km/h 57.9 km/h 31% 0 mm 536.00 W/m2
11:54 8.6 °C -6.7 °C 1024.6 hPa NE 41.8 km/h 56.3 km/h 33% 0 mm 529.00 W/m2
11:59 8.7 °C -7.1 °C 1024.9 hPa Calm   35.4 km/h 32% 0 mm 531.00 W/m2
12:04 8.7 °C -5.9 °C 1024.6 hPa SE 29 km/h 40.2 km/h 35% 0 mm 529.00 W/m2
12:09 8.7 °C -6.3 °C 1024.6 hPa ESE 11.3 km/h 41.8 km/h 34% 0 mm 531.00 W/m2
12:14 8.8 °C -5.8 °C 1024.6 hPa Calm   30.6 km/h 35% 0 mm 524.00 W/m2
12:19 8.8 °C -6.9 °C 1024.6 hPa Calm   41.8 km/h 32% 0 mm 526.00 W/m2
12:24 8.9 °C -6.9 °C 1024.3 hPa East 32.2 km/h 41.8 km/h 32% 0 mm 519.00 W/m2
12:29 9 °C -6.4 °C 1024.6 hPa East 1.6 km/h 30.6 km/h 33% 0 mm 519.00 W/m2
12:34 9 °C -4.9 °C 1024.6 hPa Calm   20.9 km/h 37% 0 mm 515.00 W/m2
12:39 9 °C -4.2 °C 1024.6 hPa East 6.4 km/h 24.1 km/h 39% 0 mm 513.00 W/m2
12:44 8.9 °C -6.4 °C 1024.6 hPa East 9.7 km/h 32.2 km/h 33% 0 mm 510.00 W/m2
12:49 9.1 °C -6.8 °C 1024.3 hPa ESE 22.5 km/h 41.8 km/h 32% 0 mm 501.00 W/m2
12:54 9.2 °C -6.3 °C 1024.6 hPa East 11.3 km/h 41.8 km/h 33% 0 mm 499.00 W/m2
12:59 9.3 °C -7 °C 1024.6 hPa East 22.5 km/h 37 km/h 31% 0 mm 492.00 W/m2
13:04 9.3 °C -5.4 °C 1024.6 hPa NE 6.4 km/h 41.8 km/h 35% 0 mm 485.00 W/m2
13:14 9.3 °C -3.9 °C 1024.6 hPa SE 14.5 km/h 17.7 km/h 39% 0 mm 471.00 W/m2
13:19 9.2 °C -3.1 °C 1024.6 hPa Calm   3.2 km/h 42% 0 mm 468.00 W/m2
13:24 9.1 °C -3.5 °C 1024.6 hPa SE 1.6 km/h 14.5 km/h 41% 0 mm 457.00 W/m2
13:29 9.1 °C -5.6 °C 1024.9 hPa SE 1.6 km/h 1.6 km/h 35% 0 mm 448.00 W/m2
13:34 9.1 °C -5.2 °C 1024.9 hPa East 4.8 km/h 20.9 km/h 36% 0 mm 441.00 W/m2
13:39 9.1 °C -5.9 °C 1024.6 hPa ENE 6.4 km/h 20.9 km/h 34% 0 mm 434.00 W/m2
13:44 9.2 °C -6.3 °C 1024.6 hPa Calm   8 km/h 33% 0 mm 424.00 W/m2
13:49 9.2 °C -5.9 °C 1024.6 hPa ESE 8 km/h 22.5 km/h 34% 0 mm 417.00 W/m2
13:54 9.2 °C -5.5 °C 1024.6 hPa Calm   29 km/h 35% 0 mm 406.00 W/m2
13:59 9.2 °C -5.5 °C 1024.6 hPa Calm   24.1 km/h 35% 0 mm 397.00 W/m2
14:00 9.2 °C -5.5 °C 1024.6 hPa Calm   24.1 km/h 35% 0 mm 394.00 W/m2
14:05 9.2 °C -5.1 °C 1024.3 hPa ENE 27.4 km/h 37 km/h 36% 0 mm 396.00 W/m2
14:10 9.1 °C -5.2 °C 1024.3 hPa Calm   32.2 km/h 36% 0 mm 374.00 W/m2
14:15 9.1 °C -3.8 °C 1024.3 hPa Calm   1.6 km/h 40% 0 mm 364.00 W/m2
14:20 9 °C -3.6 °C 1024.3 hPa Calm   14.5 km/h 41% 0 mm 353.00 W/m2
14:25 8.9 °C -3.6 °C 1024.3 hPa ENE 4.8 km/h 32.2 km/h 41% 0 mm 357.00 W/m2
14:30 8.8 °C -5.4 °C 1024.3 hPa East 17.7 km/h 24.1 km/h 36% 0 mm 330.00 W/m2
14:35 8.9 °C -5 °C 1023.9 hPa Calm   20.9 km/h 37% 0 mm 316.00 W/m2
14:40 8.8 °C -4.4 °C 1024.3 hPa Calm   1.6 km/h 39% 0 mm 306.00 W/m2
14:45 8.8 °C -4.4 °C 1024.3 hPa Calm     39% 0 mm 292.00 W/m2
14:50 8.7 °C -3.2 °C 1024.6 hPa Calm   1.6 km/h 43% 0 mm 279.00 W/m2
14:55 8.6 °C -3.3 °C 1024.6 hPa Calm     43% 0 mm 267.00 W/m2
15:00 8.4 °C -4.1 °C 1024.6 hPa Calm     41% 0 mm 253.00 W/m2
15:05 8.4 °C -5.4 °C 1024.6 hPa Calm     37% 0 mm 239.00 W/m2
15:10 8.4 °C -4.1 °C 1024.9 hPa Calm     41% 0 mm 221.00 W/m2
15:15 8.3 °C -3.5 °C 1024.9 hPa Calm     43% 0 mm 202.00 W/m2
15:20 8.3 °C -4.2 °C 1024.9 hPa Calm     41% 0 mm 185.00 W/m2
15:26 8.3 °C -3.9 °C 1024.9 hPa Calm     42% 0 mm 169.00 W/m2
15:31 8.2 °C -3.3 °C 1024.9 hPa Calm     44% 0 mm 149.00 W/m2
15:36 8.2 °C -3.7 °C 1024.9 hPa Calm     43% 0 mm 132.00 W/m2
15:38 8.2 °C -3.7 °C 1024.9 hPa Calm     43% 0 mm 123.00 W/m2
15:43 8.1 °C -2.8 °C 1025.3 hPa Calm     46% 0 mm 107.00 W/m2
15:48 8 °C -2.3 °C 1025.3 hPa Calm     48% 0 mm 90.00 W/m2
15:58 7.8 °C -2.8 °C 1025.3 hPa Calm     47% 0 mm 62.00 W/m2
16:03 7.5 °C -3.7 °C 1024.9 hPa Calm   3.2 km/h 45% 0 mm 49.00 W/m2
16:08 7.3 °C -2.4 °C 1024.9 hPa Calm   1.6 km/h 50% 0 mm 40.00 W/m2
16:13 7.1 °C -1.6 °C 1024.9 hPa Calm   1.6 km/h 54% 0 mm 28.00 W/m2
16:18 6.9 °C -1.5 °C 1025.3 hPa Calm     55% 0 mm 19.00 W/m2
16:23 6.7 °C -2.2 °C 1025.3 hPa Calm   3.2 km/h 53% 0 mm 14.00 W/m2
16:28 6.3 °C -1.8 °C 1025.3 hPa ENE 1.6 km/h 9.7 km/h 56% 0 mm 12.00 W/m2
16:33 6.2 °C -2.2 °C 1025.3 hPa Calm     55% 0 mm 11.00 W/m2
16:38 6.1 °C -2.8 °C 1025.3 hPa Calm     53% 0 mm 9.00 W/m2
16:43 6.1 °C -3.8 °C 1025.3 hPa Calm     49% 0 mm 7.00 W/m2
16:48 5.9 °C -2.7 °C 1025.3 hPa Calm     54% 0 mm 5.00 W/m2
16:53 5.8 °C -2.8 °C 1025.3 hPa Calm     54% 0 mm 0.00 W/m2
16:58 5.7 °C -2.8 °C 1025.3 hPa Calm     54% 0 mm 0.00 W/m2
17:03 5.7 °C -3.7 °C 1025.3 hPa Calm     51% 0 mm 0.00 W/m2
17:08 5.6 °C -4.1 °C 1025.3 hPa Calm     50% 0 mm 0.00 W/m2
17:13 5.5 °C -4.6 °C 1025.3 hPa Calm     48% 0 mm 0.00 W/m2
17:18 5.2 °C -2.8 °C 1025.3 hPa Calm     56% 0 mm 0.00 W/m2
17:23 5.1 °C -2.7 °C 1025.3 hPa Calm   1.6 km/h 57% 0 mm 0.00 W/m2
17:28 4.9 °C -4.3 °C 1025.3 hPa Calm   4.8 km/h 51% 0 mm 0.00 W/m2
17:33 4.9 °C -4.9 °C 1025.3 hPa Calm   3.2 km/h 49% 0 mm 0.00 W/m2
17:38 4.9 °C -4.7 °C 1025.3 hPa ENE 1.6 km/h 4.8 km/h 50% 0 mm 0.00 W/m2
17:40 4.9 °C -5.2 °C 1025.3 hPa Calm   4.8 km/h 48% 0 mm 0.00 W/m2
17:45 4.9 °C -5.2 °C 1025.3 hPa Calm     48% 0 mm 0.00 W/m2
17:50 5 °C -6.2 °C 1025.3 hPa Calm   1.6 km/h 44% 0 mm 0.00 W/m2
17:51 5 °C -5.1 °C 1025.3 hPa Calm     48% 0 mm 0.00 W/m2
17:56 5.1 °C -5.9 °C 1025.3 hPa Calm     45% 0 mm 0.00 W/m2
18:01 5.1 °C -5.6 °C 1024.9 hPa Calm     46% 0 mm 0.00 W/m2
18:06 5.1 °C -5.1 °C 1025.3 hPa Calm     48% 0 mm 0.00 W/m2
18:11 5 °C -5.7 °C 1025.3 hPa Calm     46% 0 mm 0.00 W/m2
18:16 4.9 °C -4.4 °C 1025.3 hPa Calm     51% 0 mm 0.00 W/m2
18:21 4.8 °C -6.1 °C 1024.9 hPa Calm     45% 0 mm 0.00 W/m2
18:26 4.7 °C -5.6 °C 1025.3 hPa Calm     47% 0 mm 0.00 W/m2
18:31 4.6 °C -5.2 °C 1024.9 hPa Calm     49% 0 mm 0.00 W/m2
18:36 4.4 °C -7.1 °C 1024.9 hPa Calm     43% 0 mm 0.00 W/m2
18:41 4.4 °C -6.2 °C 1024.9 hPa Calm     46% 0 mm 0.00 W/m2
18:46 4.4 °C -6.8 °C 1024.9 hPa Calm     44% 0 mm 0.00 W/m2
18:51 4.4 °C -5.7 °C 1024.9 hPa Calm     48% 0 mm 0.00 W/m2
18:56 4.3 °C -6.3 °C 1024.9 hPa Calm     46% 0 mm 0.00 W/m2
19:01 4.3 °C -5.2 °C 1024.9 hPa Calm     50% 0 mm 0.00 W/m2
19:06 4.2 °C -6.1 °C 1024.9 hPa Calm     47% 0 mm 0.00 W/m2
19:13 4.1 °C -5.9 °C 1024.9 hPa Calm     48% 0 mm 0.00 W/m2
19:18 4.1 °C -5.4 °C 1024.9 hPa Calm     50% 0 mm 0.00 W/m2
19:23 3.9 °C -5.8 °C 1024.9 hPa Calm     49% 0 mm 0.00 W/m2
19:28 3.9 °C -7.2 °C 1024.9 hPa Calm     44% 0 mm 0.00 W/m2
19:33 3.9 °C -6.1 °C 1024.9 hPa Calm     48% 0 mm 0.00 W/m2
19:38 3.9 °C -5.8 °C 1024.9 hPa Calm     49% 0 mm 0.00 W/m2
19:43 3.8 °C -5.6 °C 1024.9 hPa Calm     50% 0 mm 0.00 W/m2
19:48 3.8 °C -6.2 °C 1025.3 hPa Calm     48% 0 mm 0.00 W/m2
19:53 3.6 °C -6.9 °C 1025.3 hPa Calm     46% 0 mm 0.00 W/m2
19:58 3.5 °C -7 °C 1025.3 hPa Calm     46% 0 mm 0.00 W/m2
20:03 3.5 °C -6.7 °C 1025.3 hPa Calm     47% 0 mm 0.00 W/m2
20:04 3.5 °C -6.7 °C 1025.3 hPa Calm     47% 0 mm 0.00 W/m2
20:09 3.4 °C -6.8 °C 1025.3 hPa Calm     47% 0 mm 0.00 W/m2
20:14 3.4 °C -6.6 °C 1025.3 hPa Calm     48% 0 mm 0.00 W/m2
20:19 3.3 °C -6.4 °C 1025.3 hPa Calm     49% 0 mm 0.00 W/m2
20:24 3.3 °C -6.1 °C 1025.3 hPa Calm     50% 0 mm 0.00 W/m2
20:29 3.3 °C -5.9 °C 1025.3 hPa Calm     51% 0 mm 0.00 W/m2
20:34 3.3 °C -5.4 °C 1025.3 hPa Calm     53% 0 mm 0.00 W/m2
20:39 3.3 °C -5.9 °C 1025.6 hPa Calm   1.6 km/h 51% 0 mm 0.00 W/m2
20:44 3.3 °C -6.4 °C 1025.6 hPa Calm     49% 0 mm 0.00 W/m2
20:49 3.3 °C -6.2 °C 1025.6 hPa Calm     50% 0 mm 0.00 W/m2
20:54 3.3 °C -6.2 °C 1025.6 hPa Calm   1.6 km/h 50% 0 mm 0.00 W/m2
20:59 3.3 °C -6.2 °C 1025.6 hPa Calm     50% 0 mm 0.00 W/m2
21:04 3.3 °C -7.2 °C 1025.6 hPa Calm     46% 0 mm 0.00 W/m2
21:09 3.3 °C -7.2 °C 1025.6 hPa Calm     46% 0 mm 0.00 W/m2
21:14 3.4 °C -6.3 °C 1025.6 hPa Calm     49% 0 mm 0.00 W/m2
21:19 3.5 °C -7.3 °C 1025.6 hPa Calm     45% 0 mm 0.00 W/m2
21:24 3.6 °C -7.3 °C 1026 hPa Calm     45% 0 mm 0.00 W/m2
21:29 3.7 °C -8 °C 1026 hPa Calm     42% 0 mm 0.00 W/m2
21:34 3.8 °C -7.3 °C 1026 hPa Calm     44% 0 mm 0.00 W/m2
21:39 3.9 °C -8.1 °C 1026.3 hPa Calm     41% 0 mm 0.00 W/m2
21:44 4.1 °C -7.7 °C 1026.3 hPa Calm     42% 0 mm 0.00 W/m2
21:49 4.2 °C -7.3 °C 1026.3 hPa Calm     43% 0 mm 0.00 W/m2
21:54 4.2 °C -7.3 °C 1026.3 hPa Calm   3.2 km/h 43% 0 mm 0.00 W/m2
21:59 4.2 °C -7.6 °C 1026.3 hPa Calm   3.2 km/h 42% 0 mm 0.00 W/m2
22:04 4.3 °C -6.9 °C 1026.3 hPa ESE 1.6 km/h 1.6 km/h 44% 0 mm 0.00 W/m2
22:09 4.3 °C -7.2 °C 1026.3 hPa East 1.6 km/h 3.2 km/h 43% 0 mm 0.00 W/m2
22:14 4.4 °C -6.8 °C 1026.3 hPa East 3.2 km/h 3.2 km/h 44% 0 mm 0.00 W/m2
22:19 4.4 °C -7.1 °C 1026.6 hPa East 3.2 km/h 6.4 km/h 43% 0 mm 0.00 W/m2
22:24 4.4 °C -7.7 °C 1026.6 hPa Calm   6.4 km/h 41% 0 mm 0.00 W/m2
22:29 4.5 °C -6.4 °C 1026.6 hPa Calm   6.4 km/h 45% 0 mm 0.00 W/m2
22:34 4.6 °C -6.3 °C 1026.6 hPa ENE 1.6 km/h 3.2 km/h 45% 0 mm 0.00 W/m2
22:39 4.6 °C -6.3 °C 1027 hPa Calm   3.2 km/h 45% 0 mm 0.00 W/m2
22:44 4.7 °C -7.2 °C 1027 hPa Calm   3.2 km/h 42% 0 mm 0.00 W/m2
22:49 4.7 °C -6.8 °C 1027 hPa Calm   3.2 km/h 43% 0 mm 0.00 W/m2
22:54 4.8 °C -7.3 °C 1027 hPa ENE 1.6 km/h 3.2 km/h 41% 0 mm 0.00 W/m2
22:59 4.8 °C -7.3 °C 1027 hPa Calm   8 km/h 41% 0 mm 0.00 W/m2
23:04 4.8 °C -6.4 °C 1027 hPa Calm   9.7 km/h 44% 0 mm 0.00 W/m2
23:09 4.7 °C -6.8 °C 1027 hPa East 3.2 km/h 11.3 km/h 43% 0 mm 0.00 W/m2
23:14 4.7 °C -7.4 °C 1027 hPa Calm   9.7 km/h 41% 0 mm 0.00 W/m2
23:19 4.8 °C -5.6 °C 1027 hPa Calm   11.3 km/h 47% 0 mm 0.00 W/m2
23:24 4.7 °C -6.2 °C 1027 hPa Calm   9.7 km/h 45% 0 mm 0.00 W/m2
23:29 4.6 °C -6.3 °C 1027.3 hPa East 1.6 km/h 12.9 km/h 45% 0 mm 0.00 W/m2
23:34 4.6 °C -6.1 °C 1027.3 hPa ENE 6.4 km/h 8 km/h 46% 0 mm 0.00 W/m2
23:39 4.5 °C -6.1 °C 1027.3 hPa Calm   14.5 km/h 46% 0 mm 0.00 W/m2
23:44 4.5 °C -6.4 °C 1027.3 hPa Calm   14.5 km/h 45% 0 mm 0.00 W/m2
23:49 4.6 °C -6.9 °C 1027.3 hPa East 3.2 km/h 14.5 km/h 43% 0 mm 0.00 W/m2
23:54 4.7 °C -5.9 °C 1027.3 hPa Calm   12.9 km/h 46% 0 mm 0.00 W/m2
23:59 4.8 °C -6.1 °C 1027.3 hPa Calm   16.1 km/h 45% 0 mm 0.00 W/m2
Foresthill Weather
 WU-history PHP script courtesy of   Juneau County Weather.
powered by Cumulus v1.9.3 (1059)
Ambient Weather VWS v14.00
Top Contact Website Map Copyright © 2007 - 2018 Foresthillweather.com Never base important decisions on this or any weather information obtained from the Internet